createdAt,value
2018-12-05T00:01:04.609Z,101524.00
2018-12-05T00:03:32.694Z,101526.00
2018-12-05T00:06:00.815Z,101534.00
2018-12-05T00:08:28.868Z,101528.00
2018-12-05T00:10:57.004Z,101528.00
2018-12-05T00:13:25.171Z,101527.00
2018-12-05T00:15:53.309Z,101534.00
2018-12-05T00:18:21.326Z,101522.00
2018-12-05T00:20:49.485Z,101525.00
2018-12-05T00:23:17.565Z,101531.00
2018-12-05T00:25:45.634Z,101524.00
2018-12-05T00:28:13.739Z,101519.00
2018-12-05T00:30:41.849Z,101518.00
2018-12-05T00:33:09.908Z,101515.00
2018-12-05T00:35:38.100Z,101521.00
2018-12-05T00:38:06.147Z,101525.00
2018-12-05T00:40:34.280Z,101529.00
2018-12-05T00:43:03.258Z,101527.00
2018-12-05T00:45:31.303Z,101518.00
2018-12-05T00:47:59.399Z,101518.00
2018-12-05T00:50:27.569Z,101528.00
2018-12-05T00:52:55.718Z,101523.00
2018-12-05T00:55:23.770Z,101523.00
2018-12-05T00:57:51.909Z,101524.00
2018-12-05T01:00:19.919Z,101528.00
2018-12-05T01:02:47.963Z,101520.00
2018-12-05T01:05:16.014Z,101509.00
2018-12-05T01:07:44.022Z,101517.00
2018-12-05T01:10:12.278Z,101531.00
2018-12-05T01:12:40.341Z,101520.00
2018-12-05T01:15:08.480Z,101513.00
2018-12-05T01:17:36.531Z,101516.00
2018-12-05T01:20:05.308Z,101506.00
2018-12-05T01:22:33.391Z,101505.00
2018-12-05T01:25:01.436Z,101520.00
2018-12-05T01:27:29.439Z,101508.00
2018-12-05T01:29:57.456Z,101518.00
2018-12-05T01:32:25.594Z,101511.00
2018-12-05T01:34:53.723Z,101517.00
2018-12-05T01:37:21.743Z,101521.00
2018-12-05T01:39:49.781Z,101525.00
2018-12-05T01:42:17.815Z,101528.00
2018-12-05T01:44:46.322Z,101531.00
2018-12-05T01:47:14.370Z,101536.00
2018-12-05T01:49:42.382Z,101538.00
2018-12-05T01:52:10.575Z,101529.00
2018-12-05T01:54:38.563Z,101524.00
2018-12-05T01:57:06.715Z,101523.00
2018-12-05T01:59:34.689Z,101521.00
2018-12-05T02:02:02.816Z,101527.00
2018-12-05T02:04:30.879Z,101525.00
2018-12-05T02:06:58.907Z,101509.00
2018-12-05T02:09:26.918Z,101521.00
2018-12-05T02:11:54.955Z,101522.00
2018-12-05T02:14:23.001Z,101513.00
2018-12-05T02:16:50.962Z,101509.00
2018-12-05T02:19:19.257Z,101512.00
2018-12-05T02:21:47.331Z,101504.00
2018-12-05T02:24:15.772Z,101512.00
2018-12-05T02:26:43.795Z,101509.00
2018-12-05T02:29:11.802Z,101506.00
2018-12-05T02:31:39.818Z,101503.00
2018-12-05T02:34:07.901Z,101500.00
2018-12-05T02:36:35.914Z,101507.00
2018-12-05T02:39:08.569Z,101493.00
2018-12-05T02:41:36.566Z,101478.00
2018-12-05T02:44:04.942Z,101477.00
2018-12-05T02:46:32.925Z,101462.00
2018-12-05T02:49:00.902Z,101466.00
2018-12-05T02:51:28.845Z,101467.00
2018-12-05T02:53:56.849Z,101464.00
2018-12-05T02:56:24.929Z,101463.00
2018-12-05T02:58:53.054Z,101474.00
2018-12-05T03:01:21.047Z,101472.00
2018-12-05T03:03:49.130Z,101476.00
2018-12-05T03:06:17.127Z,101476.00
2018-12-05T03:08:45.242Z,101476.00
2018-12-05T03:11:13.419Z,101477.00
2018-12-05T03:13:41.404Z,101494.00
2018-12-05T03:16:09.411Z,101493.00
2018-12-05T03:18:37.381Z,101495.00
2018-12-05T03:21:05.550Z,101498.00
2018-12-05T03:23:33.518Z,101492.00
2018-12-05T03:26:01.556Z,101492.00
2018-12-05T03:28:29.692Z,101488.00
2018-12-05T03:30:57.679Z,101476.00
2018-12-05T03:33:25.819Z,101497.00
2018-12-05T03:35:53.890Z,101508.00
2018-12-05T03:38:21.900Z,101509.00
2018-12-05T03:40:49.980Z,101495.00
2018-12-05T03:43:17.966Z,101501.00
2018-12-05T03:45:45.938Z,101497.00
2018-12-05T03:48:13.900Z,101510.00
2018-12-05T03:50:41.988Z,101500.00
2018-12-05T03:53:09.979Z,101494.00
2018-12-05T03:55:38.038Z,101486.00
2018-12-05T03:58:06.172Z,101491.00
2018-12-05T04:00:34.177Z,101497.00
2018-12-05T04:03:02.267Z,101491.00
2018-12-05T04:05:30.231Z,101496.00
2018-12-05T04:07:58.295Z,101492.00
2018-12-05T04:10:26.308Z,101490.00
2018-12-05T04:12:54.386Z,101472.00
2018-12-05T04:15:22.415Z,101482.00
2018-12-05T04:17:50.351Z,101491.00
2018-12-05T04:20:18.421Z,101500.00
2018-12-05T04:22:46.418Z,101494.00
2018-12-05T04:25:14.415Z,101495.00
2018-12-05T04:27:42.513Z,101501.00
2018-12-05T04:30:10.583Z,101497.00
2018-12-05T04:32:38.532Z,101495.00
2018-12-05T04:35:06.859Z,101503.00
2018-12-05T04:37:34.849Z,101493.00
2018-12-05T04:40:03.308Z,101495.00
2018-12-05T04:42:31.393Z,101489.00
2018-12-05T04:44:59.401Z,101494.00
2018-12-05T04:47:27.377Z,101481.00
2018-12-05T04:49:55.422Z,101488.00
2018-12-05T04:52:23.461Z,101481.00
2018-12-05T04:54:51.480Z,101487.00
2018-12-05T04:57:19.487Z,101488.00
2018-12-05T04:59:47.494Z,101486.00
2018-12-05T05:02:15.586Z,101487.00
2018-12-05T05:04:43.613Z,101482.00
2018-12-05T05:07:11.730Z,101473.00
2018-12-05T05:09:39.773Z,101480.00
2018-12-05T05:12:07.938Z,101480.00
2018-12-05T05:14:35.945Z,101482.00
2018-12-05T05:17:04.056Z,101483.00
2018-12-05T05:19:32.106Z,101482.00
2018-12-05T05:22:00.151Z,101486.00
2018-12-05T05:24:28.221Z,101486.00
2018-12-05T05:26:56.259Z,101487.00
2018-12-05T05:29:24.314Z,101490.00
2018-12-05T05:31:52.490Z,101490.00
2018-12-05T05:34:20.656Z,101495.00
2018-12-05T05:36:48.660Z,101486.00
2018-12-05T05:39:16.800Z,101493.00
2018-12-05T05:41:44.870Z,101489.00
2018-12-05T05:44:12.942Z,101482.00
2018-12-05T05:46:41.003Z,101487.00
2018-12-05T05:49:09.191Z,101489.00
2018-12-05T05:51:37.263Z,101493.00
2018-12-05T05:54:05.523Z,101487.00
2018-12-05T05:56:33.830Z,101494.00
2018-12-05T05:59:01.882Z,101498.00
2018-12-05T06:01:29.916Z,101495.00
2018-12-05T06:03:58.131Z,101494.00
2018-12-05T06:06:26.244Z,101487.00
2018-12-05T06:08:54.449Z,101491.00
2018-12-05T06:11:22.521Z,101480.00
2018-12-05T06:13:50.555Z,101480.00
2018-12-05T06:16:19.066Z,101483.00
2018-12-05T06:18:47.131Z,101487.00
2018-12-05T06:21:15.147Z,101491.00
2018-12-05T06:23:43.227Z,101498.00
2018-12-05T06:26:11.319Z,101472.00
2018-12-05T06:28:39.458Z,101482.00
2018-12-05T06:31:07.496Z,101475.00
2018-12-05T06:33:35.665Z,101479.00
2018-12-05T06:36:03.849Z,101468.00
2018-12-05T06:38:31.956Z,101470.00
2018-12-05T06:41:00.064Z,101470.00
2018-12-05T06:43:28.094Z,101469.00
2018-12-05T06:45:56.244Z,101479.00
2018-12-05T06:48:24.292Z,101473.00
2018-12-05T06:50:52.405Z,101471.00
2018-12-05T06:53:20.491Z,101480.00
2018-12-05T06:55:48.704Z,101426.00
2018-12-05T06:58:16.790Z,101470.00
2018-12-05T07:00:44.900Z,101483.00
2018-12-05T07:03:12.934Z,101479.00
2018-12-05T07:05:41.113Z,101478.00
2018-12-05T07:08:09.106Z,101478.00
2018-12-05T07:10:37.166Z,101482.00
2018-12-05T07:13:05.240Z,101490.00
2018-12-05T07:15:33.423Z,101492.00
2018-12-05T07:18:01.502Z,101493.00
2018-12-05T07:20:29.579Z,101497.00
2018-12-05T07:22:57.686Z,101493.00
2018-12-05T07:25:25.867Z,101487.00
2018-12-05T07:27:53.871Z,101482.00
2018-12-05T07:30:29.211Z,101489.00
2018-12-05T07:32:51.950Z,101491.00
2018-12-05T07:35:20.031Z,101494.00
2018-12-05T07:37:48.142Z,101490.00
2018-12-05T07:40:16.464Z,101494.00
2018-12-05T07:42:44.653Z,101503.00
2018-12-05T07:45:12.823Z,101504.00
2018-12-05T07:47:40.851Z,101505.00
2018-12-05T07:50:08.951Z,101507.00
2018-12-05T07:52:36.984Z,101505.00
2018-12-05T07:55:05.661Z,101503.00
2018-12-05T07:57:33.856Z,101494.00
2018-12-05T08:00:02.010Z,101496.00
2018-12-05T08:02:30.136Z,101500.00
2018-12-05T08:04:58.218Z,101492.00
2018-12-05T08:07:27.189Z,101502.00
2018-12-05T08:09:55.211Z,101496.00
2018-12-05T08:12:23.359Z,101503.00
2018-12-05T08:14:51.483Z,101496.00
2018-12-05T08:17:19.619Z,101493.00
2018-12-05T08:19:48.339Z,101494.00
2018-12-05T08:22:16.627Z,101500.00
2018-12-05T08:24:44.815Z,101505.00
2018-12-05T08:27:12.929Z,101505.00
2018-12-05T08:29:40.958Z,101524.00
2018-12-05T08:32:08.949Z,101513.00
2018-12-05T08:34:37.024Z,101506.00
2018-12-05T08:37:05.079Z,101503.00
2018-12-05T08:39:33.117Z,101495.00
2018-12-05T08:42:01.191Z,101494.00
2018-12-05T08:44:29.221Z,101497.00
2018-12-05T08:46:57.264Z,101495.00
2018-12-05T08:49:25.333Z,101504.00
2018-12-05T08:51:53.580Z,101499.00
2018-12-05T08:54:21.613Z,101498.00
2018-12-05T08:56:49.864Z,101500.00
2018-12-05T08:59:18.058Z,101491.00
2018-12-05T09:01:46.312Z,101499.00
2018-12-05T09:04:15.155Z,101490.00
2018-12-05T09:06:43.244Z,101488.00
2018-12-05T09:09:11.461Z,101489.00
2018-12-05T09:11:39.578Z,101487.00
2018-12-05T09:14:07.677Z,101490.00
2018-12-05T09:16:35.756Z,101471.00
2018-12-05T09:19:03.824Z,101473.00
2018-12-05T09:21:31.945Z,101468.00
2018-12-05T09:24:00.134Z,101468.00
2018-12-05T09:26:28.248Z,101469.00
2018-12-05T09:28:57.375Z,101466.00
2018-12-05T09:31:25.619Z,101466.00
2018-12-05T09:33:53.691Z,101466.00
2018-12-05T09:36:21.822Z,101466.00
2018-12-05T09:38:49.996Z,101462.00
2018-12-05T09:41:18.083Z,101463.00
2018-12-05T09:43:46.140Z,101462.00
2018-12-05T09:46:14.250Z,101466.00
2018-12-05T09:48:42.349Z,101471.00
2018-12-05T09:51:10.468Z,101470.00
2018-12-05T09:53:38.671Z,101470.00
2018-12-05T09:56:06.796Z,101463.00
2018-12-05T09:58:34.999Z,101457.00
2018-12-05T10:01:03.124Z,101468.00
2018-12-05T10:03:31.186Z,101447.00
2018-12-05T10:05:59.291Z,101445.00
2018-12-05T10:08:27.359Z,101448.00
2018-12-05T10:10:55.451Z,101439.00
2018-12-05T10:13:23.459Z,101444.00
2018-12-05T10:15:52.535Z,101434.00
2018-12-05T10:18:20.689Z,101437.00
2018-12-05T10:20:55.820Z,101440.00
2018-12-05T10:23:19.114Z,101431.00
2018-12-05T10:25:47.230Z,101424.00
2018-12-05T10:28:15.351Z,101427.00
2018-12-05T10:30:43.536Z,101429.00
2018-12-05T10:33:11.604Z,101426.00
2018-12-05T10:35:39.711Z,101425.00
2018-12-05T10:38:07.774Z,101421.00
2018-12-05T10:40:35.929Z,101405.00
2018-12-05T10:43:04.120Z,101397.00
2018-12-05T10:45:32.330Z,101402.00
2018-12-05T10:48:00.522Z,101398.00
2018-12-05T10:50:28.647Z,101392.00
2018-12-05T10:52:56.766Z,101381.00
2018-12-05T10:55:24.911Z,101382.00
2018-12-05T10:57:52.942Z,101375.00
2018-12-05T11:03:27.326Z,101373.00
2018-12-05T11:06:01.047Z,101359.00
2018-12-05T11:08:34.798Z,101363.00
2018-12-05T11:11:08.555Z,101363.00
2018-12-05T11:13:42.424Z,101365.00
2018-12-05T11:16:16.145Z,101352.00
2018-12-05T11:18:50.023Z,101351.00
2018-12-05T11:21:23.854Z,101356.00
2018-12-05T11:23:57.373Z,101366.00
2018-12-05T11:26:28.329Z,101373.00
2018-12-05T11:28:56.649Z,101366.00
2018-12-05T11:31:24.862Z,101360.00
2018-12-05T11:33:52.984Z,101358.00
2018-12-05T11:36:21.337Z,101350.00
2018-12-05T11:38:49.437Z,101356.00
2018-12-05T11:41:17.675Z,101344.00
2018-12-05T11:43:45.779Z,101339.00
2018-12-05T11:46:13.943Z,101342.00
2018-12-05T11:48:42.053Z,101334.00
2018-12-05T11:51:10.121Z,101323.00
2018-12-05T11:53:38.147Z,101325.00
2018-12-05T11:56:06.165Z,101313.00
2018-12-05T11:58:34.255Z,101316.00
2018-12-05T12:01:02.529Z,101304.00
2018-12-05T12:03:30.660Z,101307.00
2018-12-05T12:05:58.898Z,101305.00
2018-12-05T12:08:27.003Z,101317.00
2018-12-05T12:10:55.304Z,101308.00
2018-12-05T12:13:23.641Z,101306.00
2018-12-05T12:15:51.831Z,101306.00
2018-12-05T12:18:19.922Z,101300.00
2018-12-05T12:20:48.002Z,101291.00
2018-12-05T12:23:16.168Z,101298.00
2018-12-05T12:25:44.225Z,101292.00
2018-12-05T12:28:12.287Z,101294.00
2018-12-05T12:30:40.538Z,101282.00
2018-12-05T12:33:08.633Z,101278.00
2018-12-05T12:35:36.753Z,101275.00
2018-12-05T12:38:04.857Z,101263.00
2018-12-05T12:40:32.988Z,101265.00
2018-12-05T12:43:01.158Z,101259.00
2018-12-05T12:45:29.273Z,101251.00
2018-12-05T12:47:57.366Z,101254.00
2018-12-05T12:50:25.396Z,101246.00
2018-12-05T12:52:53.598Z,101236.00
2018-12-05T12:55:21.658Z,101231.00
2018-12-05T12:57:49.739Z,101238.00
2018-12-05T13:00:17.896Z,101231.00
2018-12-05T13:02:46.015Z,101232.00
2018-12-05T13:05:14.199Z,101215.00
2018-12-05T13:07:42.536Z,101218.00
2018-12-05T13:10:10.738Z,101226.00
2018-12-05T13:12:38.783Z,101212.00
2018-12-05T13:15:07.295Z,101211.00
2018-12-05T13:17:35.442Z,101216.00
2018-12-05T13:20:04.071Z,101214.00
2018-12-05T13:22:32.245Z,101220.00
2018-12-05T13:25:00.388Z,101227.00
2018-12-05T13:27:28.516Z,101215.00
2018-12-05T13:29:56.660Z,101202.00
2018-12-05T13:32:24.839Z,101202.00
2018-12-05T13:34:53.045Z,101197.00
2018-12-05T13:37:21.240Z,101186.00
2018-12-05T13:39:49.529Z,101182.00
2018-12-05T13:42:17.739Z,101181.00
2018-12-05T13:44:45.877Z,101177.00
2018-12-05T13:47:14.163Z,101184.00
2018-12-05T13:49:42.446Z,101180.00
2018-12-05T13:52:10.609Z,101190.00
2018-12-05T13:54:38.734Z,101178.00
2018-12-05T13:57:06.881Z,101176.00
2018-12-05T13:59:34.999Z,101183.00
2018-12-05T14:02:03.163Z,101182.00
2018-12-05T14:04:31.486Z,101171.00
2018-12-05T14:06:59.627Z,101172.00
2018-12-05T14:09:28.039Z,101168.00
2018-12-05T14:11:56.103Z,101162.00
2018-12-05T14:14:24.502Z,101158.00
2018-12-05T14:16:52.703Z,101157.00
2018-12-05T14:19:20.807Z,101152.00
2018-12-05T14:21:48.998Z,101157.00
2018-12-05T14:24:17.078Z,101151.00
2018-12-05T14:26:45.164Z,101141.00
2018-12-05T14:29:13.281Z,101152.00
2018-12-05T14:31:41.420Z,101148.00
2018-12-05T14:34:09.526Z,101144.00
2018-12-05T14:36:37.759Z,101136.00
2018-12-05T14:39:07.034Z,101135.00
2018-12-05T14:41:35.271Z,101134.00
2018-12-05T14:44:03.961Z,101123.00
2018-12-05T14:46:32.135Z,101124.00
2018-12-05T14:49:00.578Z,101116.00
2018-12-05T14:51:28.650Z,101109.00
2018-12-05T14:53:56.948Z,101113.00
2018-12-05T14:56:25.334Z,101111.00
2018-12-05T14:58:53.450Z,101113.00
2018-12-05T15:01:21.717Z,101103.00
2018-12-05T15:03:49.831Z,101106.00
2018-12-05T15:06:18.111Z,101103.00
2018-12-05T15:08:46.268Z,101090.00
2018-12-05T15:11:14.369Z,101103.00
2018-12-05T15:13:42.629Z,101101.00
2018-12-05T15:16:10.832Z,101092.00
2018-12-05T15:18:39.064Z,101091.00
2018-12-05T15:21:07.247Z,101101.00
2018-12-05T15:23:35.262Z,101090.00
2018-12-05T15:26:03.669Z,101094.00
2018-12-05T15:28:31.783Z,101089.00
2018-12-05T15:30:59.866Z,101090.00
2018-12-05T15:33:28.037Z,101089.00
2018-12-05T15:35:57.895Z,101082.00
2018-12-05T15:38:26.076Z,101082.00
2018-12-05T15:40:54.240Z,101077.00
2018-12-05T15:43:22.349Z,101084.00
2018-12-05T15:45:50.470Z,101077.00
2018-12-05T15:48:18.632Z,101074.00
2018-12-05T15:50:46.936Z,101068.00
2018-12-05T15:53:15.098Z,101063.00
2018-12-05T15:55:43.287Z,101059.00
2018-12-05T15:58:11.393Z,101070.00
2018-12-05T16:00:39.546Z,101050.00
2018-12-05T16:03:07.770Z,101040.00
2018-12-05T16:05:35.886Z,101050.00
2018-12-05T16:08:04.226Z,101055.00
2018-12-05T16:10:32.433Z,101057.00
2018-12-05T16:13:00.529Z,101058.00
2018-12-05T16:15:29.474Z,101061.00
2018-12-05T16:17:57.666Z,101060.00
2018-12-05T16:20:25.793Z,101053.00
2018-12-05T16:22:53.856Z,101048.00
2018-12-05T16:25:21.995Z,101039.00
2018-12-05T16:27:50.383Z,101042.00
2018-12-05T16:30:18.582Z,101039.00
2018-12-05T16:32:46.893Z,101033.00
2018-12-05T16:35:15.121Z,101034.00
2018-12-05T16:37:43.254Z,101033.00
2018-12-05T16:40:11.495Z,101031.00
2018-12-05T16:42:39.740Z,101029.00
2018-12-05T16:45:08.527Z,101021.00
2018-12-05T16:47:36.812Z,101015.00
2018-12-05T16:50:06.070Z,101009.00
2018-12-05T16:52:34.412Z,101009.00
2018-12-05T16:55:02.590Z,101021.00
2018-12-05T16:57:30.755Z,101016.00
2018-12-05T16:59:59.417Z,101004.00
2018-12-05T17:02:27.607Z,101003.00
2018-12-05T17:04:55.778Z,100997.00
2018-12-05T17:07:23.996Z,100994.00
2018-12-05T17:09:52.119Z,100994.00
2018-12-05T17:12:20.441Z,100988.00
2018-12-05T17:14:48.544Z,100997.00
2018-12-05T17:17:16.742Z,100987.00
2018-12-05T17:19:46.259Z,100978.00
2018-12-05T17:22:14.650Z,100974.00
2018-12-05T17:24:43.366Z,100959.00
2018-12-05T17:27:11.749Z,100963.00
2018-12-05T17:29:40.155Z,100958.00
2018-12-05T17:32:08.508Z,100954.00
2018-12-05T17:34:36.776Z,100954.00
2018-12-05T17:37:05.024Z,100943.00
2018-12-05T17:39:33.176Z,100948.00
2018-12-05T17:42:01.322Z,100952.00
2018-12-05T17:44:29.484Z,100938.00
2018-12-05T17:46:57.872Z,100936.00
2018-12-05T17:49:26.045Z,100930.00
2018-12-05T17:51:57.424Z,100932.00
2018-12-05T17:54:25.745Z,100928.00
2018-12-05T17:56:53.949Z,100931.00
2018-12-05T17:59:22.051Z,100922.00
2018-12-05T18:01:50.295Z,100930.00
2018-12-05T18:04:18.535Z,100932.00
2018-12-05T18:06:46.657Z,100932.00
2018-12-05T18:09:14.868Z,100924.00
2018-12-05T18:11:43.094Z,100923.00
2018-12-05T18:14:11.395Z,100917.00
2018-12-05T18:16:39.602Z,100920.00
2018-12-05T18:19:07.862Z,100921.00
2018-12-05T18:21:36.053Z,100915.00
2018-12-05T18:24:04.319Z,100910.00
2018-12-05T18:26:32.598Z,100904.00
2018-12-05T18:29:00.863Z,100907.00
2018-12-05T18:31:29.144Z,100901.00
2018-12-05T18:33:57.373Z,100911.00
2018-12-05T18:36:26.838Z,100900.00
2018-12-05T18:38:55.182Z,100900.00
2018-12-05T18:41:23.495Z,100891.00
2018-12-05T18:43:51.757Z,100881.00
2018-12-05T18:46:20.089Z,100870.00
2018-12-05T18:48:48.260Z,100871.00
2018-12-05T18:51:16.506Z,100853.00
2018-12-05T18:53:44.873Z,100855.00
2018-12-05T18:56:13.246Z,100839.00
2018-12-05T18:58:41.619Z,100847.00
2018-12-05T19:01:10.082Z,100846.00
2018-12-05T19:03:38.456Z,100860.00
2018-12-05T19:06:06.761Z,100852.00
2018-12-05T19:08:34.990Z,100853.00
2018-12-05T19:11:03.169Z,100874.00
2018-12-05T19:13:33.553Z,100853.00
2018-12-05T19:16:02.013Z,100858.00
2018-12-05T19:18:30.200Z,100845.00
2018-12-05T19:20:58.525Z,100821.00
2018-12-05T19:23:26.914Z,100814.00
2018-12-05T19:25:55.209Z,100812.00
2018-12-05T19:28:23.609Z,100801.00
2018-12-05T19:30:51.998Z,100825.00
2018-12-05T19:33:20.301Z,100844.00
2018-12-05T19:35:48.758Z,100849.00
2018-12-05T19:38:17.081Z,100839.00
2018-12-05T19:40:45.378Z,100835.00
2018-12-05T19:43:13.626Z,100822.00
2018-12-05T19:45:42.340Z,100833.00
2018-12-05T19:48:10.692Z,100818.00
2018-12-05T19:50:39.133Z,100801.00
2018-12-05T19:53:07.324Z,100804.00
2018-12-05T19:55:35.867Z,100805.00
2018-12-05T19:58:04.060Z,100793.00
2018-12-05T20:00:32.776Z,100794.00
2018-12-05T20:03:01.114Z,100797.00
2018-12-05T20:05:29.503Z,100779.00
2018-12-05T20:07:57.979Z,100790.00
2018-12-05T20:10:26.118Z,100789.00
2018-12-05T20:12:54.403Z,100777.00
2018-12-05T20:15:22.706Z,100788.00
2018-12-05T20:17:50.995Z,100778.00
2018-12-05T20:20:19.297Z,100773.00
2018-12-05T20:22:47.525Z,100751.00
2018-12-05T20:25:15.688Z,100757.00
2018-12-05T20:27:43.954Z,100764.00
2018-12-05T20:30:12.222Z,100759.00
2018-12-05T20:32:40.690Z,100763.00
2018-12-05T20:35:09.030Z,100762.00
2018-12-05T20:37:37.280Z,100766.00
2018-12-05T20:40:06.003Z,100765.00
2018-12-05T20:42:34.475Z,100759.00
2018-12-05T20:45:02.846Z,100760.00
2018-12-05T20:47:31.618Z,100751.00
2018-12-05T20:50:00.509Z,100746.00
2018-12-05T20:52:28.793Z,100744.00
2018-12-05T20:54:57.179Z,100743.00
2018-12-05T20:57:25.671Z,100740.00
2018-12-05T20:59:54.266Z,100739.00
2018-12-05T21:02:22.705Z,100738.00
2018-12-05T21:04:50.985Z,100730.00
2018-12-05T21:07:19.254Z,100723.00
2018-12-05T21:09:47.970Z,100721.00
2018-12-05T21:12:16.341Z,100730.00
2018-12-05T21:14:45.742Z,100732.00
2018-12-05T21:17:14.075Z,100732.00
2018-12-05T21:19:42.192Z,100714.00
2018-12-05T21:22:10.484Z,100708.00
2018-12-05T21:24:38.941Z,100719.00
2018-12-05T21:27:07.169Z,100722.00
2018-12-05T21:29:36.530Z,100732.00
2018-12-05T21:32:05.427Z,100730.00
2018-12-05T21:34:34.244Z,100720.00
2018-12-05T21:37:03.923Z,100720.00
2018-12-05T21:39:32.162Z,100715.00
2018-12-05T21:42:01.188Z,100710.00
2018-12-05T21:44:29.874Z,100708.00
2018-12-05T21:46:58.768Z,100695.00
2018-12-05T21:49:27.210Z,100694.00
2018-12-05T21:51:55.924Z,100702.00
2018-12-05T21:54:25.667Z,100711.00
2018-12-05T22:00:19.955Z,100708.00
2018-12-05T22:02:48.137Z,100704.00
2018-12-05T22:05:16.332Z,100690.00
2018-12-05T22:07:45.034Z,100687.00
2018-12-05T22:10:13.167Z,100689.00
2018-12-05T22:12:42.162Z,100692.00
2018-12-05T22:15:10.540Z,100688.00
2018-12-05T22:17:38.770Z,100697.00
2018-12-05T22:20:08.840Z,100684.00
2018-12-05T22:22:36.958Z,100689.00
2018-12-05T22:25:05.498Z,100687.00
2018-12-05T22:27:34.764Z,100684.00
2018-12-05T22:30:03.841Z,100682.00
2018-12-05T22:32:32.234Z,100682.00
2018-12-05T22:35:00.392Z,100680.00
2018-12-05T22:37:28.921Z,100683.00
2018-12-05T22:39:57.124Z,100674.00
2018-12-05T22:42:25.731Z,100668.00
2018-12-05T22:44:54.177Z,100664.00
2018-12-05T22:47:22.400Z,100663.00
2018-12-05T22:49:51.360Z,100663.00
2018-12-05T22:52:19.480Z,100655.00
2018-12-05T22:54:47.982Z,100661.00
2018-12-05T22:57:16.403Z,100655.00
2018-12-05T22:59:44.782Z,100658.00
2018-12-05T23:02:14.261Z,100654.00
2018-12-05T23:07:37.284Z,100649.00
2018-12-05T23:10:06.153Z,100653.00
2018-12-05T23:12:34.994Z,100647.00
2018-12-05T23:15:03.476Z,100636.00
2018-12-05T23:17:31.778Z,100639.00
2018-12-05T23:20:00.646Z,100628.00
2018-12-05T23:22:28.992Z,100619.00
2018-12-05T23:24:57.704Z,100628.00
2018-12-05T23:27:26.111Z,100625.00
2018-12-05T23:29:54.262Z,100625.00
2018-12-05T23:32:22.533Z,100619.00
2018-12-05T23:34:51.634Z,100630.00
2018-12-05T23:37:19.927Z,100621.00
2018-12-05T23:39:48.388Z,100629.00
2018-12-05T23:42:16.996Z,100626.00
2018-12-05T23:44:45.082Z,100625.00
2018-12-05T23:47:13.297Z,100626.00
2018-12-05T23:49:43.441Z,100630.00
2018-12-05T23:52:12.206Z,100627.00
2018-12-05T23:54:40.344Z,100628.00
2018-12-05T23:57:08.547Z,100626.00
2018-12-05T23:59:36.616Z,100624.00
